createdAt,value
2019-05-19T00:00:14.425Z,1018.33
2019-05-19T00:01:15.030Z,1018.40
2019-05-19T00:02:15.602Z,1018.39
2019-05-19T00:03:16.225Z,1018.39
2019-05-19T00:04:16.772Z,1018.40
2019-05-19T00:05:17.365Z,1018.34
2019-05-19T00:06:17.978Z,1018.33
2019-05-19T00:07:18.548Z,1018.36
2019-05-19T00:08:19.126Z,1018.37
2019-05-19T00:09:19.692Z,1018.35
2019-05-19T00:10:20.263Z,1018.32
2019-05-19T00:11:20.834Z,1018.40
2019-05-19T00:12:21.406Z,1018.41
2019-05-19T00:13:22.019Z,1018.34
2019-05-19T00:14:22.592Z,1018.38
2019-05-19T00:15:23.184Z,1018.37
2019-05-19T00:16:23.777Z,1018.42
2019-05-19T00:17:24.391Z,1018.35
2019-05-19T00:18:24.963Z,1018.36
2019-05-19T00:19:27.030Z,1018.45
2019-05-19T00:20:26.140Z,1018.35
2019-05-19T00:21:26.719Z,1018.33
2019-05-19T00:22:27.324Z,1018.33
2019-05-19T00:23:27.895Z,1018.37
2019-05-19T00:24:28.466Z,1018.25
2019-05-19T00:25:29.057Z,1018.29
2019-05-19T00:26:29.653Z,1018.26
2019-05-19T00:27:30.227Z,1018.27
2019-05-19T00:28:30.842Z,1018.31
2019-05-19T00:29:31.426Z,1018.27
2019-05-19T00:30:31.983Z,1018.25
2019-05-19T00:31:32.555Z,1018.26
2019-05-19T00:32:33.124Z,1018.27
2019-05-19T00:33:33.695Z,1018.29
2019-05-19T00:34:34.307Z,1018.19
2019-05-19T00:35:34.895Z,1018.25
2019-05-19T00:36:35.496Z,1018.19
2019-05-19T00:37:36.069Z,1018.15
2019-05-19T00:38:36.683Z,1018.18
2019-05-19T00:39:37.275Z,1018.18
2019-05-19T00:40:37.869Z,1018.18
2019-05-19T00:41:38.440Z,1018.13
2019-05-19T00:42:39.015Z,1018.12
2019-05-19T00:43:39.582Z,1018.13
2019-05-19T00:44:40.153Z,1018.07
2019-05-19T00:45:40.723Z,1018.09
2019-05-19T00:46:41.304Z,1017.98
2019-05-19T00:47:41.912Z,1018.02
2019-05-19T00:48:42.479Z,1017.98
2019-05-19T00:49:43.058Z,1018.01
2019-05-19T00:50:43.622Z,1017.97
2019-05-19T00:51:44.190Z,1017.94
2019-05-19T00:52:44.763Z,1017.94
2019-05-19T00:53:45.334Z,1017.96
2019-05-19T00:54:45.916Z,1018.01
2019-05-19T00:55:46.476Z,1018.08
2019-05-19T00:56:47.048Z,1018.03
2019-05-19T00:57:47.618Z,1018.04
2019-05-19T00:58:48.188Z,1018.01
2019-05-19T00:59:48.759Z,1018.03
2019-05-19T01:00:49.331Z,1018.03
2019-05-19T01:01:49.906Z,1018.03
2019-05-19T01:02:50.515Z,1018.09
2019-05-19T01:03:51.090Z,1017.99
2019-05-19T01:04:51.659Z,1017.98
2019-05-19T01:05:52.227Z,1017.98
2019-05-19T01:06:52.804Z,1018.01
2019-05-19T01:07:53.415Z,1017.98
2019-05-19T01:08:53.986Z,1017.95
2019-05-19T01:09:54.557Z,1018.08
2019-05-19T01:10:55.127Z,1018.04
2019-05-19T01:11:55.697Z,1018.02
2019-05-19T01:12:56.269Z,1017.98
2019-05-19T01:13:56.838Z,1017.99
2019-05-19T01:14:57.409Z,1017.93
2019-05-19T01:15:57.978Z,1017.87
2019-05-19T01:16:58.548Z,1017.91
2019-05-19T01:17:59.119Z,1017.88
2019-05-19T01:18:59.689Z,1017.92
2019-05-19T01:20:00.257Z,1017.90
2019-05-19T01:21:00.829Z,1017.85
2019-05-19T01:22:01.405Z,1017.85
2019-05-19T01:23:01.969Z,1017.89
2019-05-19T01:24:02.541Z,1017.86
2019-05-19T01:25:03.111Z,1017.90
2019-05-19T01:26:03.682Z,1017.96
2019-05-19T01:27:04.254Z,1017.87
2019-05-19T01:28:04.827Z,1017.90
2019-05-19T01:29:05.401Z,1017.85
2019-05-19T01:30:05.965Z,1017.96
2019-05-19T01:31:06.540Z,1017.89
2019-05-19T01:32:07.108Z,1017.89
2019-05-19T01:33:07.722Z,1017.90
2019-05-19T01:34:08.292Z,1017.95
2019-05-19T01:35:08.867Z,1017.89
2019-05-19T01:36:09.434Z,1017.83
2019-05-19T01:37:10.008Z,1017.81
2019-05-19T01:38:10.578Z,1017.82
2019-05-19T01:39:11.145Z,1017.81
2019-05-19T01:40:11.723Z,1017.78
2019-05-19T01:41:12.291Z,1017.80
2019-05-19T01:42:12.856Z,1017.87
2019-05-19T01:43:13.431Z,1017.80
2019-05-19T01:44:13.998Z,1017.79
2019-05-19T01:45:14.618Z,1017.80
2019-05-19T01:46:15.145Z,1017.83
2019-05-19T01:47:15.715Z,1017.79
2019-05-19T01:48:16.286Z,1017.76
2019-05-19T01:49:16.857Z,1017.75
2019-05-19T01:50:18.582Z,1017.80
2019-05-19T01:51:18.992Z,1017.72
2019-05-19T01:52:19.563Z,1017.70
2019-05-19T01:53:20.131Z,1017.71
2019-05-19T01:54:20.703Z,1017.65
2019-05-19T01:55:21.274Z,1017.62
2019-05-19T01:56:21.842Z,1017.59
2019-05-19T01:57:22.416Z,1017.70
2019-05-19T01:58:23.030Z,1017.66
2019-05-19T01:59:23.599Z,1017.69
2019-05-19T02:00:24.172Z,1017.63
2019-05-19T02:01:24.743Z,1017.62
2019-05-19T02:02:25.313Z,1017.66
2019-05-19T02:03:25.884Z,1017.66
2019-05-19T02:04:26.456Z,1017.65
2019-05-19T02:05:27.028Z,1017.70
2019-05-19T02:06:27.598Z,1017.74
2019-05-19T02:07:28.183Z,1017.70
2019-05-19T02:08:28.782Z,1017.63
2019-05-19T02:09:29.362Z,1017.64
2019-05-19T02:10:29.978Z,1017.63
2019-05-19T02:11:30.547Z,1017.65
2019-05-19T02:12:31.168Z,1017.64
2019-05-19T02:13:31.733Z,1017.68
2019-05-19T02:14:32.304Z,1017.69
2019-05-19T02:15:32.877Z,1017.66
2019-05-19T02:16:33.448Z,1017.66
2019-05-19T02:17:34.018Z,1017.72
2019-05-19T02:18:34.591Z,1017.64
2019-05-19T02:19:35.161Z,1017.69
2019-05-19T02:20:35.731Z,1017.66
2019-05-19T02:21:36.301Z,1017.54
2019-05-19T02:22:36.870Z,1017.59
2019-05-19T02:23:37.440Z,1017.62
2019-05-19T02:24:38.034Z,1017.62
2019-05-19T02:25:38.579Z,1017.62
2019-05-19T02:26:39.354Z,1017.61
2019-05-19T02:27:39.970Z,1017.73
2019-05-19T02:28:40.535Z,1017.63
2019-05-19T02:29:41.105Z,1017.66
2019-05-19T02:30:41.682Z,1017.71
2019-05-19T02:31:42.291Z,1017.69
2019-05-19T02:32:42.902Z,1017.66
2019-05-19T02:33:43.471Z,1017.64
2019-05-19T02:34:44.045Z,1017.66
2019-05-19T02:35:44.657Z,1017.67
2019-05-19T02:36:45.247Z,1017.69
2019-05-19T02:37:45.821Z,1017.67
2019-05-19T02:38:46.395Z,1017.64
2019-05-19T02:39:46.962Z,1017.64
2019-05-19T02:40:47.574Z,1017.63
2019-05-19T02:41:48.145Z,1017.56
2019-05-19T02:42:48.719Z,1017.49
2019-05-19T02:43:49.328Z,1017.60
2019-05-19T02:44:49.900Z,1017.53
2019-05-19T02:45:50.512Z,1017.63
2019-05-19T02:46:51.082Z,1017.62
2019-05-19T02:47:51.662Z,1017.59
2019-05-19T02:48:52.265Z,1017.58
2019-05-19T02:49:52.844Z,1017.57
2019-05-19T02:50:53.471Z,1017.52
2019-05-19T02:51:54.011Z,1017.62
2019-05-19T02:52:54.579Z,1017.56
2019-05-19T02:53:55.151Z,1017.63
2019-05-19T02:54:55.765Z,1017.64
2019-05-19T02:55:56.336Z,1017.66
2019-05-19T02:56:56.906Z,1017.52
2019-05-19T02:57:57.476Z,1017.52
2019-05-19T02:58:58.047Z,1017.61
2019-05-19T02:59:58.620Z,1017.61
2019-05-19T03:00:59.192Z,1017.54
2019-05-19T03:01:59.759Z,1017.62
2019-05-19T03:03:00.330Z,1017.62
2019-05-19T03:04:00.898Z,1017.57
2019-05-19T03:05:01.476Z,1017.64
2019-05-19T03:06:02.050Z,1017.53
2019-05-19T03:07:02.676Z,1017.61
2019-05-19T03:08:03.276Z,1017.67
2019-05-19T03:09:03.846Z,1017.63
2019-05-19T03:10:04.420Z,1017.67
2019-05-19T03:11:05.025Z,1017.68
2019-05-19T03:12:05.596Z,1017.64
2019-05-19T03:13:06.172Z,1017.69
2019-05-19T03:14:06.779Z,1017.58
2019-05-19T03:15:07.349Z,1017.65
2019-05-19T03:16:07.949Z,1017.65
2019-05-19T03:17:08.530Z,1017.65
2019-05-19T03:18:09.135Z,1017.71
2019-05-19T03:19:09.756Z,1017.64
2019-05-19T03:20:10.341Z,1017.78
2019-05-19T03:21:12.084Z,1017.69
2019-05-19T03:22:11.560Z,1017.69
2019-05-19T03:23:12.164Z,1017.78
2019-05-19T03:24:12.776Z,1017.75
2019-05-19T03:25:13.379Z,1017.70
2019-05-19T03:26:13.963Z,1017.74
2019-05-19T03:27:14.743Z,1017.74
2019-05-19T03:28:15.351Z,1017.85
2019-05-19T03:29:15.963Z,1017.76
2019-05-19T03:30:16.537Z,1017.76
2019-05-19T03:31:17.108Z,1017.68
2019-05-19T03:32:17.722Z,1017.78
2019-05-19T03:33:18.346Z,1017.76
2019-05-19T03:34:18.947Z,1017.65
2019-05-19T03:35:19.549Z,1017.69
2019-05-19T03:36:20.162Z,1017.68
2019-05-19T03:37:20.749Z,1017.70
2019-05-19T03:38:21.369Z,1017.73
2019-05-19T03:39:22.166Z,1017.65
2019-05-19T03:40:22.777Z,1017.71
2019-05-19T03:41:23.393Z,1017.71
2019-05-19T03:42:23.963Z,1017.66
2019-05-19T03:43:24.568Z,1017.66
2019-05-19T03:44:25.146Z,1017.69
2019-05-19T03:45:25.780Z,1017.65
2019-05-19T03:46:26.330Z,1017.62
2019-05-19T03:47:26.938Z,1017.59
2019-05-19T03:48:27.541Z,1017.68
2019-05-19T03:49:28.112Z,1017.55
2019-05-19T03:50:28.762Z,1017.64
2019-05-19T03:51:31.683Z,1017.60
2019-05-19T03:52:29.948Z,1017.57
2019-05-19T03:53:30.527Z,1017.63
2019-05-19T03:54:31.086Z,1017.63
2019-05-19T03:55:31.699Z,1017.63
2019-05-19T03:56:47.080Z,1017.65
2019-05-19T03:57:47.695Z,1017.65
2019-05-19T03:58:48.262Z,1017.62
2019-05-19T04:01:04.251Z,1017.55
2019-05-19T04:02:04.823Z,1017.63
2019-05-19T04:03:05.409Z,1017.54
2019-05-19T04:04:05.960Z,1017.56
2019-05-19T04:05:06.532Z,1017.56
2019-05-19T04:06:07.103Z,1017.53
2019-05-19T04:07:07.674Z,1017.65
2019-05-19T04:08:08.288Z,1017.58
2019-05-19T04:09:08.906Z,1017.61
2019-05-19T04:10:09.515Z,1017.52
2019-05-19T04:11:10.083Z,1017.50
2019-05-19T04:12:10.656Z,1017.51
2019-05-19T05:25:22.412Z,1017.53
2019-05-19T05:26:23.030Z,1017.53
2019-05-19T05:27:23.565Z,1017.59
2019-05-19T10:30:41.842Z,1018.27
2019-05-19T10:31:42.432Z,1018.27
2019-05-19T10:32:43.075Z,1018.25
2019-05-19T10:33:43.663Z,1018.27
2019-05-19T10:34:44.237Z,1018.33
2019-05-19T10:35:44.819Z,1018.24
2019-05-19T10:36:45.399Z,1018.28
2019-05-19T10:37:45.975Z,1018.37
2019-05-19T10:38:46.551Z,1018.24
2019-05-19T10:39:47.129Z,1018.26
2019-05-19T10:40:47.741Z,1018.33
2019-05-19T10:41:48.328Z,1018.21
2019-05-19T10:42:48.905Z,1018.21
2019-05-19T10:43:49.484Z,1018.24
2019-05-19T10:44:50.103Z,1018.24
2019-05-19T10:45:50.685Z,1018.22
2019-05-19T10:46:51.259Z,1018.24
2019-05-19T10:47:51.840Z,1018.17
2019-05-19T10:48:52.416Z,1018.22
2019-05-19T10:49:52.993Z,1018.28
2019-05-19T10:50:53.571Z,1018.28
2019-05-19T10:51:54.150Z,1018.22
2019-05-19T10:52:54.728Z,1018.25
2019-05-19T10:53:55.306Z,1018.31
2019-05-19T10:54:55.884Z,1018.35
2019-05-19T10:55:56.464Z,1018.37
2019-05-19T10:56:57.042Z,1018.31
2019-05-19T10:57:57.621Z,1018.33
2019-05-19T10:58:58.245Z,1018.34
2019-05-19T10:59:58.823Z,1018.32
2019-05-19T11:00:59.401Z,1018.28
2019-05-19T11:01:59.982Z,1018.38
2019-05-19T11:03:00.562Z,1018.45
2019-05-19T11:04:01.141Z,1018.47
2019-05-19T11:05:01.725Z,1018.47
2019-05-19T11:06:02.421Z,1018.51
2019-05-19T11:07:02.984Z,1018.44
2019-05-19T11:08:03.560Z,1018.52
2019-05-19T11:09:04.141Z,1018.54
2019-05-19T11:10:04.727Z,1018.45
2019-05-19T11:11:05.301Z,1018.57
2019-05-19T11:12:05.927Z,1018.49
2019-05-19T11:13:06.479Z,1018.46
2019-05-19T11:14:07.060Z,1018.50
2019-05-19T11:15:07.645Z,1018.51
2019-05-19T11:26:54.537Z,1018.65
2019-05-19T11:27:55.131Z,1018.60
2019-05-19T11:28:55.737Z,1018.54
2019-05-19T11:29:56.330Z,1018.69
2019-05-19T11:30:56.914Z,1018.61
2019-05-19T11:31:57.543Z,1018.60
2019-05-19T11:32:58.131Z,1018.69
2019-05-19T11:33:58.713Z,1018.76
2019-05-19T11:34:59.299Z,1018.75
2019-05-19T11:35:59.878Z,1018.70
2019-05-19T11:37:00.463Z,1018.60
2019-05-19T11:38:01.048Z,1018.61
2019-05-19T11:39:01.634Z,1018.65
2019-05-19T11:41:17.900Z,1018.60
2019-05-19T11:42:18.488Z,1018.58
2019-05-19T11:43:19.073Z,1018.71
2019-05-19T11:44:19.864Z,1018.68
2019-05-19T11:45:20.447Z,1018.63
2019-05-19T11:46:21.035Z,1018.55
2019-05-19T11:47:21.618Z,1018.62
2019-05-19T11:48:22.205Z,1018.66
2019-05-19T11:49:22.788Z,1018.69
2019-05-19T11:50:23.378Z,1018.69
2019-05-19T11:51:23.958Z,1018.65
2019-05-19T11:52:24.544Z,1018.68
2019-05-19T11:53:25.130Z,1018.62
2019-05-19T11:54:25.753Z,1018.69
2019-05-19T11:55:26.339Z,1018.75
2019-05-19T11:56:26.923Z,1018.61
2019-05-19T11:57:27.507Z,1018.56
2019-05-19T11:58:28.091Z,1018.65
2019-05-19T11:59:29.088Z,1018.57
2019-05-19T12:00:29.718Z,1018.67
2019-05-19T12:01:30.298Z,1018.54
2019-05-19T12:02:30.885Z,1018.49
2019-05-19T12:03:31.470Z,1018.65
2019-05-19T12:04:32.055Z,1018.56
2019-05-19T12:05:32.648Z,1018.59
2019-05-19T12:06:39.254Z,1018.48
2019-05-19T12:07:34.808Z,1018.45
2019-05-19T12:08:35.392Z,1018.52
2019-05-19T12:09:35.979Z,1018.54
2019-05-19T12:10:36.567Z,1018.42
2019-05-19T12:11:37.149Z,1018.43
2019-05-19T12:12:37.735Z,1018.43
2019-05-19T12:13:38.325Z,1018.50
2019-05-19T12:14:38.976Z,1018.60
2019-05-19T12:15:39.613Z,1018.48
2019-05-19T12:16:40.242Z,1018.39
2019-05-19T12:17:40.864Z,1018.57
2019-05-19T12:18:41.459Z,1018.44
2019-05-19T12:19:42.042Z,1018.67
2019-05-19T12:20:42.634Z,1018.52
2019-05-19T12:22:01.944Z,1018.55
2019-05-19T12:23:02.573Z,1018.52
2019-05-19T12:24:03.211Z,1018.44
2019-05-19T12:25:04.042Z,1018.50
2019-05-19T12:26:04.668Z,1018.53
2019-05-19T12:27:05.298Z,1018.54
2019-05-19T12:28:12.585Z,1018.57
2019-05-19T12:30:43.803Z,1018.50
2019-05-19T12:31:44.393Z,1018.72
2019-05-19T12:32:44.982Z,1018.52
2019-05-19T12:35:01.015Z,1018.40
2019-05-19T12:36:01.599Z,1018.52
2019-05-19T12:37:02.233Z,1018.46
2019-05-19T12:38:02.820Z,1018.47
2019-05-19T12:39:03.460Z,1018.61
2019-05-19T12:41:20.539Z,1018.69
2019-05-19T12:42:21.130Z,1018.56
2019-05-19T12:43:21.716Z,1018.56
2019-05-19T12:44:22.305Z,1018.51
2019-05-19T12:45:22.893Z,1018.54
2019-05-19T12:46:23.481Z,1018.45
2019-05-19T12:47:24.072Z,1018.40
2019-05-19T12:48:24.658Z,1018.41
2019-05-19T12:50:40.892Z,1018.40
2019-05-19T12:51:41.482Z,1018.39
2019-05-19T12:52:42.073Z,1018.39
2019-05-19T12:53:42.669Z,1018.32
2019-05-19T12:54:43.260Z,1018.42
2019-05-19T12:55:43.846Z,1018.31
2019-05-19T12:56:44.436Z,1018.14
2019-05-19T12:57:45.025Z,1018.21
2019-05-19T12:58:45.616Z,1018.21
2019-05-19T12:59:46.203Z,1018.21
2019-05-19T13:00:46.796Z,1018.27
2019-05-19T13:01:47.430Z,1018.22
2019-05-19T13:02:48.020Z,1018.36
2019-05-19T13:03:48.617Z,1018.30
2019-05-19T13:05:04.393Z,1018.29
2019-05-19T13:05:50.804Z,1018.27
2019-05-19T13:06:51.459Z,1018.18
2019-05-19T13:07:52.049Z,1018.14
2019-05-19T13:08:52.683Z,1018.14
2019-05-19T13:09:53.283Z,1018.09
2019-05-19T13:10:53.903Z,1018.14
2019-05-19T13:11:54.694Z,1018.26
2019-05-19T13:12:55.325Z,1018.09
2019-05-19T13:13:55.923Z,1018.20
2019-05-19T13:14:56.503Z,1018.23
2019-05-19T13:15:57.133Z,1018.14
2019-05-19T13:16:57.722Z,1018.18
2019-05-19T13:17:58.307Z,1018.16
2019-05-19T13:18:58.898Z,1018.20
2019-05-19T13:19:59.487Z,1018.14
2019-05-19T13:21:00.115Z,1018.13
2019-05-19T13:22:00.751Z,1018.23
2019-05-19T13:23:01.384Z,1018.23
2019-05-19T13:24:02.219Z,1018.23
2019-05-19T13:25:03.010Z,1018.22
2019-05-19T13:26:03.597Z,1018.22
2019-05-19T13:27:04.241Z,1018.16
2019-05-19T13:28:04.865Z,1018.13
2019-05-19T13:29:05.473Z,1018.14
2019-05-19T13:30:06.069Z,1018.11
2019-05-19T13:31:06.676Z,1018.19
2019-05-19T13:32:07.263Z,1018.27
2019-05-19T13:33:07.854Z,1018.21
2019-05-19T13:34:08.443Z,1018.11
2019-05-19T13:35:09.031Z,1018.09
2019-05-19T13:36:09.625Z,1018.16
2019-05-19T13:37:10.207Z,1018.17
2019-05-19T13:38:10.795Z,1018.06
2019-05-19T13:39:11.430Z,1018.15
2019-05-19T13:40:12.064Z,1018.03
2019-05-19T13:41:12.655Z,1018.11
2019-05-19T13:42:13.254Z,1018.08
2019-05-19T13:43:13.881Z,1018.05
2019-05-19T13:44:14.517Z,1018.11
2019-05-19T13:45:15.106Z,1018.12
2019-05-19T13:46:15.696Z,1018.11
2019-05-19T13:47:16.297Z,1018.07
2019-05-19T13:48:16.920Z,1018.07
2019-05-19T13:49:17.540Z,1018.07
2019-05-19T13:50:18.140Z,1018.10
2019-05-19T13:51:18.973Z,1018.03
2019-05-19T13:53:35.048Z,1018.14
2019-05-19T13:54:36.302Z,1018.16
2019-05-19T13:56:52.358Z,1018.09
2019-05-19T13:57:53.153Z,1018.09
2019-05-19T14:01:28.596Z,1018.07
2019-05-19T14:02:26.143Z,1018.05
2019-05-19T14:05:58.555Z,1018.07
2019-05-19T14:06:59.197Z,1018.10
2019-05-19T14:07:59.829Z,1018.17
2019-05-19T14:09:00.465Z,1018.11
2019-05-19T14:10:01.290Z,1018.13
2019-05-19T14:11:01.923Z,1018.26
2019-05-19T14:12:02.560Z,1018.15
2019-05-19T14:25:44.005Z,1018.20
2019-05-19T14:26:44.586Z,1018.19
2019-05-19T14:27:45.174Z,1018.15
2019-05-19T14:28:45.803Z,1018.18
2019-05-19T14:29:46.389Z,1018.12
2019-05-19T14:30:46.973Z,1018.15
2019-05-19T14:31:47.560Z,1018.23
2019-05-19T14:32:48.153Z,1018.18
2019-05-19T14:33:48.775Z,1018.17
2019-05-19T14:34:49.392Z,1018.18
2019-05-19T14:35:49.983Z,1018.08
2019-05-19T14:36:50.564Z,1018.12
2019-05-19T14:37:51.151Z,1018.10
2019-05-19T14:38:51.735Z,1018.06
2019-05-19T14:39:52.321Z,1018.04
2019-05-19T14:40:52.906Z,1018.05
2019-05-19T14:41:53.489Z,1018.19
2019-05-19T14:42:54.084Z,1018.14
2019-05-19T14:43:54.691Z,1018.07
2019-05-19T14:44:55.239Z,1018.07
2019-05-19T14:45:55.825Z,1018.00
2019-05-19T14:46:56.406Z,1018.04
2019-05-19T14:47:56.993Z,1018.04
2019-05-19T14:48:57.619Z,1018.04
2019-05-19T14:49:58.202Z,1018.03
2019-05-19T14:50:58.787Z,1017.99
2019-05-19T14:51:59.370Z,1018.02
2019-05-19T14:52:59.999Z,1017.90
2019-05-19T14:54:00.583Z,1017.98
2019-05-19T14:55:01.164Z,1017.97
2019-05-19T14:56:01.747Z,1017.99
2019-05-19T14:57:02.369Z,1017.97
2019-05-19T14:58:02.934Z,1017.93
2019-05-19T14:59:03.517Z,1017.92
2019-05-19T15:00:04.101Z,1017.94
2019-05-19T15:01:04.727Z,1017.86
2019-05-19T15:02:05.317Z,1017.86
2019-05-19T15:03:05.897Z,1017.91
2019-05-19T15:04:07.538Z,1017.85
2019-05-19T15:05:08.528Z,1017.87
2019-05-19T15:06:09.111Z,1017.81
2019-05-19T15:07:09.702Z,1017.84
2019-05-19T15:08:10.327Z,1017.91
2019-05-19T15:09:10.916Z,1017.81
2019-05-19T15:10:11.538Z,1017.91
2019-05-19T15:11:12.118Z,1017.90
2019-05-19T15:12:12.703Z,1017.84
2019-05-19T15:13:13.286Z,1017.87
2019-05-19T15:14:13.874Z,1017.89
2019-05-19T15:15:14.453Z,1017.89
2019-05-19T15:16:15.039Z,1017.79
2019-05-19T15:17:15.621Z,1017.86
2019-05-19T15:18:16.203Z,1017.89
2019-05-19T15:19:16.785Z,1017.81
2019-05-19T15:20:17.368Z,1017.89
2019-05-19T15:21:17.952Z,1017.82
2019-05-19T15:22:18.529Z,1017.87
2019-05-19T15:23:19.113Z,1017.92
2019-05-19T15:24:19.694Z,1017.96
2019-05-19T15:25:20.275Z,1018.00
2019-05-19T15:26:20.857Z,1017.85
2019-05-19T15:27:21.438Z,1017.91
2019-05-19T15:28:22.020Z,1017.91
2019-05-19T15:29:22.602Z,1017.91
2019-05-19T15:30:23.182Z,1017.82
2019-05-19T15:31:23.764Z,1017.79
2019-05-19T15:32:24.350Z,1017.83
2019-05-19T15:33:24.953Z,1017.80
2019-05-19T15:34:26.577Z,1017.80
2019-05-19T15:35:27.159Z,1017.79
2019-05-19T15:36:27.782Z,1017.81
2019-05-19T15:37:28.365Z,1017.77
2019-05-19T15:38:28.948Z,1017.89
2019-05-19T15:39:29.578Z,1017.81
2019-05-19T15:40:30.221Z,1017.76
2019-05-19T15:42:46.257Z,1017.79
2019-05-19T15:43:46.839Z,1017.73
2019-05-19T15:44:47.422Z,1017.71
2019-05-19T15:45:48.058Z,1017.76
2019-05-19T15:46:48.642Z,1017.72
2019-05-19T15:47:49.222Z,1017.71
2019-05-19T15:48:49.803Z,1017.69
2019-05-19T15:49:50.385Z,1017.65
2019-05-19T15:50:51.018Z,1017.61
2019-05-19T15:52:01.606Z,1017.67
2019-05-19T15:52:52.223Z,1017.62
2019-05-19T15:53:52.811Z,1017.68
2019-05-19T15:54:53.392Z,1017.70
2019-05-19T15:55:53.969Z,1017.72
2019-05-19T15:56:54.594Z,1017.66
2019-05-19T15:57:55.177Z,1017.70
2019-05-19T15:58:55.763Z,1017.66
2019-05-19T15:59:56.382Z,1017.67
2019-05-19T16:00:56.977Z,1017.61
2019-05-19T16:01:57.604Z,1017.60
2019-05-19T16:02:58.221Z,1017.59
2019-05-19T16:03:58.792Z,1017.60
2019-05-19T16:04:59.374Z,1017.64
2019-05-19T16:05:59.958Z,1017.65
2019-05-19T16:07:00.538Z,1017.62
2019-05-19T16:08:01.118Z,1017.63
2019-05-19T16:09:01.700Z,1017.60
2019-05-19T16:10:02.345Z,1017.61
2019-05-19T16:11:02.907Z,1017.59
2019-05-19T16:12:03.488Z,1017.66
2019-05-19T16:13:04.071Z,1017.56
2019-05-19T16:14:04.654Z,1017.61
2019-05-19T16:15:05.233Z,1017.64
2019-05-19T16:16:05.815Z,1017.52
2019-05-19T16:17:06.395Z,1017.52
2019-05-19T16:18:06.975Z,1017.50
2019-05-19T16:19:07.598Z,1017.49
2019-05-19T16:20:08.175Z,1017.43
2019-05-19T16:21:08.756Z,1017.44
2019-05-19T16:22:09.335Z,1017.44
2019-05-19T16:23:09.916Z,1017.46
2019-05-19T16:24:10.501Z,1017.43
2019-05-19T16:25:11.119Z,1017.46
2019-05-19T16:26:11.697Z,1017.55
2019-05-19T16:27:12.918Z,1017.50
2019-05-19T16:28:13.617Z,1017.52
2019-05-19T16:29:14.198Z,1017.46
2019-05-19T16:30:14.777Z,1017.45
2019-05-19T16:31:15.359Z,1017.39
2019-05-19T16:32:15.942Z,1017.40
2019-05-19T16:33:16.678Z,1017.42
2019-05-19T16:34:17.137Z,1017.41
2019-05-19T16:35:17.716Z,1017.28
2019-05-19T16:36:18.296Z,1017.39
2019-05-19T16:37:18.875Z,1017.27
2019-05-19T16:38:19.457Z,1017.29
2019-05-19T16:39:20.038Z,1017.27
2019-05-19T16:40:20.615Z,1017.38
2019-05-19T16:41:21.194Z,1017.42
2019-05-19T16:42:21.775Z,1017.34
2019-05-19T16:43:22.354Z,1017.35
2019-05-19T16:44:22.934Z,1017.27
2019-05-19T16:45:23.511Z,1017.37
2019-05-19T16:46:24.089Z,1017.38
2019-05-19T16:47:24.669Z,1017.37
2019-05-19T16:48:25.249Z,1017.31
2019-05-19T16:49:25.825Z,1017.39
2019-05-19T16:50:26.402Z,1017.41
2019-05-19T16:51:26.982Z,1017.45
2019-05-19T16:52:27.562Z,1017.58
2019-05-19T16:53:28.142Z,1017.53
2019-05-19T16:54:28.726Z,1017.56
2019-05-19T16:55:29.354Z,1017.53
2019-05-19T16:56:29.933Z,1017.58
2019-05-19T16:57:30.513Z,1017.56
2019-05-19T16:58:44.509Z,1017.47
2019-05-19T16:59:32.662Z,1017.48
2019-05-19T17:00:33.242Z,1017.52
2019-05-19T17:01:33.821Z,1017.40
2019-05-19T17:02:34.398Z,1017.42
2019-05-19T17:03:34.976Z,1017.44
2019-05-19T17:04:35.557Z,1017.37
2019-05-19T17:05:36.137Z,1017.35
2019-05-19T17:06:36.713Z,1017.39
2019-05-19T17:07:37.294Z,1017.33
2019-05-19T17:08:37.873Z,1017.31
2019-05-19T17:09:38.454Z,1017.37
2019-05-19T17:10:39.030Z,1017.36
2019-05-19T17:11:54.330Z,1017.37
2019-05-19T17:12:54.954Z,1017.27
2019-05-19T17:13:55.533Z,1017.20
2019-05-19T17:14:56.109Z,1017.19
2019-05-19T17:15:56.689Z,1017.23
2019-05-19T17:16:57.266Z,1017.20
2019-05-19T17:17:57.848Z,1017.25
2019-05-19T17:18:58.424Z,1017.20
2019-05-19T17:19:59.003Z,1017.19
2019-05-19T17:20:59.586Z,1017.16
2019-05-19T17:22:00.163Z,1017.21
2019-05-19T17:23:00.785Z,1017.19
2019-05-19T17:24:01.400Z,1017.19
2019-05-19T17:25:01.990Z,1017.18
2019-05-19T17:26:02.567Z,1017.18
2019-05-19T17:27:03.164Z,1017.21
2019-05-19T17:28:03.772Z,1017.29
2019-05-19T17:29:04.350Z,1017.20
2019-05-19T17:30:04.971Z,1017.21
2019-05-19T17:31:07.634Z,1017.22
2019-05-19T17:32:07.122Z,1017.23
2019-05-19T17:33:07.701Z,1017.20
2019-05-19T17:34:08.279Z,1017.17
2019-05-19T17:35:08.867Z,1017.18
2019-05-19T17:36:09.442Z,1017.25
2019-05-19T17:37:10.015Z,1017.12
2019-05-19T17:38:10.590Z,1017.13
2019-05-19T17:39:11.169Z,1017.15
2019-05-19T17:40:11.747Z,1017.10
2019-05-19T17:41:12.372Z,1017.13
2019-05-19T17:42:13.830Z,1017.17
2019-05-19T17:43:13.573Z,1017.18
2019-05-19T17:44:14.150Z,1017.08
2019-05-19T17:45:14.729Z,1017.12
2019-05-19T17:46:15.361Z,1017.12
2019-05-19T17:47:15.895Z,1017.15
2019-05-19T17:48:26.105Z,1017.21
2019-05-19T17:49:18.047Z,1017.15
2019-05-19T17:50:18.627Z,1017.11
2019-05-19T17:51:19.207Z,1017.06
2019-05-19T17:52:19.804Z,1017.12
2019-05-19T17:53:20.403Z,1017.13
2019-05-19T17:54:20.982Z,1017.18
2019-05-19T17:55:21.559Z,1017.16
2019-05-19T17:56:22.135Z,1017.15
2019-05-19T17:57:22.758Z,1017.13
2019-05-19T17:58:23.384Z,1017.16
2019-05-19T17:59:23.958Z,1017.13
2019-05-19T18:00:24.539Z,1017.11
2019-05-19T18:01:25.117Z,1017.18
2019-05-19T18:02:25.696Z,1017.04
2019-05-19T18:03:26.272Z,1017.03
2019-05-19T18:04:26.851Z,1017.04
2019-05-19T18:05:27.436Z,1017.05
2019-05-19T18:06:29.804Z,1017.09
2019-05-19T18:07:29.627Z,1017.08
2019-05-19T18:08:30.203Z,1017.04
2019-05-19T18:09:30.779Z,1017.06
2019-05-19T18:10:31.401Z,1017.11
2019-05-19T18:11:31.987Z,1016.98
2019-05-19T18:12:32.599Z,1017.09
2019-05-19T18:13:33.231Z,1017.10
2019-05-19T18:14:33.804Z,1017.02
2019-05-19T18:15:34.394Z,1017.00
2019-05-19T18:16:35.008Z,1017.02
2019-05-19T18:17:35.624Z,1017.13
2019-05-19T18:18:36.247Z,1017.07
2019-05-19T18:19:36.825Z,1017.01
2019-05-19T18:20:37.405Z,1017.14
2019-05-19T18:21:37.982Z,1017.08
2019-05-19T18:22:38.558Z,1017.14
2019-05-19T18:23:39.138Z,1017.07
2019-05-19T18:24:39.715Z,1017.04
2019-05-19T18:25:40.295Z,1017.11
2019-05-19T18:26:40.872Z,1017.13
2019-05-19T18:27:41.471Z,1017.12
2019-05-19T18:28:42.076Z,1017.11
2019-05-19T18:29:42.695Z,1017.07
2019-05-19T18:30:43.276Z,1017.00
2019-05-19T18:31:43.856Z,1017.07
2019-05-19T18:32:44.432Z,1017.05
2019-05-19T18:33:45.009Z,1017.14
2019-05-19T18:34:45.589Z,1017.09
2019-05-19T18:35:46.166Z,1017.07
2019-05-19T18:36:46.784Z,1017.05
2019-05-19T18:37:47.374Z,1017.11
2019-05-19T18:38:47.938Z,1017.09
2019-05-19T18:39:48.515Z,1017.06
2019-05-19T18:40:49.094Z,1017.11
2019-05-19T18:41:49.670Z,1017.07
2019-05-19T18:42:50.252Z,1017.13
2019-05-19T18:43:50.872Z,1017.12
2019-05-19T18:44:51.450Z,1017.11
2019-05-19T18:45:52.027Z,1017.13
2019-05-19T18:46:52.642Z,1017.05
2019-05-19T18:47:53.199Z,1017.09
2019-05-19T18:48:53.768Z,1017.06
2019-05-19T18:49:54.345Z,1017.07
2019-05-19T18:50:54.921Z,1017.04
2019-05-19T18:51:55.502Z,1017.09
2019-05-19T18:52:56.121Z,1017.12
2019-05-19T18:53:56.697Z,1017.10
2019-05-19T18:54:57.275Z,1017.09
2019-05-19T18:55:57.853Z,1017.11
2019-05-19T18:56:58.430Z,1017.10
2019-05-19T18:57:59.011Z,1017.11
2019-05-19T18:58:59.583Z,1017.04
2019-05-19T19:00:00.160Z,1016.99
2019-05-19T19:01:00.741Z,1017.05
2019-05-19T19:02:01.314Z,1017.08
2019-05-19T19:03:01.889Z,1017.10
2019-05-19T19:04:02.473Z,1017.16
2019-05-19T19:05:03.044Z,1017.16
2019-05-19T19:06:03.619Z,1017.16
2019-05-19T19:07:04.195Z,1017.13
2019-05-19T19:08:04.773Z,1017.16